Time;durP1;ratioP1;P1;durP2;ratioP2;P2;SDS_P1;SDS_P2;PMS_P1;PMS_P2;Temp;Humidity;BMP_temperature;BMP_pressure;BME280_temperature;BME280_humidity;BME280_pressure;Samples;Min_cycle;Max_cycle;Signal;HPM_P1;HPM_P2
2022/09/19 00:01:57;;;;;;;5.03;1.83;;;;;;;;;;4992075;28;20266;-65
2022/09/19 00:04:28;;;;;;;4.43;1.70;;;;;;;;;;4991562;28;20691;-65
2022/09/19 00:06:55;;;;;;;5.37;1.97;;;;;;;;;;4992224;28;20221;-65
2022/09/19 00:09:22;;;;;;;3.83;1.70;;;;;;;;;;4992375;28;20213;-65
2022/09/19 00:11:50;;;;;;;8.00;2.33;;;;;;;;;;4992123;28;20291;-65
2022/09/19 00:14:17;;;;;;;5.37;2.10;;;;;;;;;;4992549;28;20193;-65
2022/09/19 00:16:44;;;;;;;6.37;1.80;;;;;;;;;;4991940;28;20209;-65
2022/09/19 00:19:15;;;;;;;3.80;2.00;;;;;;;;;;4988476;28;20182;-65
2022/09/19 00:21:42;;;;;;;4.97;1.70;;;;;;;;;;4982403;28;20189;-65
2022/09/19 00:26:55;;;;;;;7.40;2.10;;;;;;;;;;4990397;28;20197;-65
2022/09/19 00:29:22;;;;;;;5.53;1.90;;;;;;;;;;4992137;28;21014;-65
2022/09/19 00:31:49;;;;;;;4.43;1.70;;;;;;;;;;4991893;28;20197;-65
2022/09/19 00:34:17;;;;;;;6.97;1.90;;;;;;;;;;4990288;28;20196;-63
2022/09/19 00:36:44;;;;;;;5.90;2.00;;;;;;;;;;4991000;28;20244;-65
2022/09/19 00:39:11;;;;;;;6.23;2.23;;;;;;;;;;4974724;28;20205;-66
2022/09/19 00:41:38;;;;;;;7.20;2.27;;;;;;;;;;4990663;28;20781;-65
2022/09/19 00:44:23;;;;;;;6.53;2.03;;;;;;;;;;5006736;28;20600;-65
2022/09/19 00:46:50;;;;;;;4.33;2.20;;;;;;;;;;4978838;28;20196;-64
2022/09/19 00:49:19;;;;;;;4.47;2.07;;;;;;;;;;4990178;28;20691;-65
2022/09/19 00:51:46;;;;;;;6.97;2.70;;;;;;;;;;4990786;28;20205;-65
2022/09/19 00:54:14;;;;;;;6.83;3.03;;;;;;;;;;4991714;28;20544;-65
2022/09/19 00:56:45;;;;;;;4.90;2.20;;;;;;;;;;4990650;28;20291;-65
2022/09/19 00:59:12;;;;;;;4.83;2.70;;;;;;;;;;4990374;28;20197;-65
2022/09/19 01:01:39;;;;;;;7.40;2.70;;;;;;;;;;4990132;28;20208;-65
2022/09/19 01:04:20;;;;;;;4.87;2.50;;;;;;;;;;4973983;28;20225;-65
2022/09/19 01:06:58;;;;;;;5.63;2.50;;;;;;;;;;4990029;28;20738;-65
2022/09/19 01:09:40;;;;;;;7.23;2.70;;;;;;;;;;4990416;28;20197;-65
2022/09/19 01:12:26;;;;;;;6.37;3.00;;;;;;;;;;4990862;28;20225;-66
2022/09/19 01:15:08;;;;;;;6.00;2.77;;;;;;;;;;4991276;28;20723;-65
2022/09/19 01:17:45;;;;;;;7.53;2.53;;;;;;;;;;4979537;28;20196;-65
2022/09/19 01:20:18;;;;;;;4.47;2.47;;;;;;;;;;4989789;28;20548;-65
2022/09/19 01:23:05;;;;;;;6.40;2.57;;;;;;;;;;4989548;28;20201;-65
2022/09/19 01:25:46;;;;;;;6.17;2.40;;;;;;;;;;4989307;28;20209;-65
2022/09/19 01:28:14;;;;;;;6.07;2.63;;;;;;;;;;5005636;28;20213;-65
2022/09/19 01:33:42;;;;;;;5.63;2.40;;;;;;;;;;4975862;28;20720;-65
2022/09/19 01:36:10;;;;;;;5.20;2.40;;;;;;;;;;4989791;28;20260;-65
2022/09/19 01:38:38;;;;;;;5.83;3.13;;;;;;;;;;4972624;28;20199;-65
2022/09/19 01:41:07;;;;;;;8.50;2.67;;;;;;;;;;4973430;28;20201;-65
2022/09/19 01:43:35;;;;;;;5.27;2.53;;;;;;;;;;4972760;28;20201;-65
2022/09/19 01:46:05;;;;;;;5.00;2.90;;;;;;;;;;4990546;28;20198;-68
2022/09/19 01:48:36;;;;;;;7.67;2.43;;;;;;;;;;4989054;28;20192;-64
2022/09/19 01:51:03;;;;;;;3.03;2.40;;;;;;;;;;4989213;28;20232;-66
2022/09/19 01:53:51;;;;;;;6.27;2.50;;;;;;;;;;5005836;28;20253;-64
2022/09/19 01:56:39;;;;;;;7.20;2.90;;;;;;;;;;4989481;28;20205;-65
2022/09/19 01:59:06;;;;;;;5.37;3.10;;;;;;;;;;5005223;28;20255;-66
2022/09/19 02:01:32;;;;;;;5.27;2.80;;;;;;;;;;5004753;28;20184;-65
2022/09/19 02:04:25;;;;;;;5.20;2.90;;;;;;;;;;4990156;28;20197;-64
2022/09/19 02:06:55;;;;;;;5.03;2.77;;;;;;;;;;4988349;28;20286;-65
2022/09/19 02:09:25;;;;;;;5.40;3.00;;;;;;;;;;4988921;28;20234;-65
2022/09/19 02:11:52;;;;;;;7.10;2.47;;;;;;;;;;4988848;28;20319;-65
2022/09/19 02:14:22;;;;;;;5.97;3.07;;;;;;;;;;4973575;28;20232;-65
2022/09/19 02:17:08;;;;;;;7.27;2.83;;;;;;;;;;4988147;28;20727;-65
2022/09/19 02:19:39;;;;;;;8.63;2.73;;;;;;;;;;4988569;28;20688;-65
2022/09/19 02:22:08;;;;;;;4.20;2.40;;;;;;;;;;4988727;28;20648;-65
2022/09/19 02:24:38;;;;;;;6.10;2.67;;;;;;;;;;4989726;28;20197;-65
2022/09/19 02:27:17;;;;;;;3.57;2.23;;;;;;;;;;4988437;28;20540;-65
2022/09/19 02:29:45;;;;;;;6.07;2.50;;;;;;;;;;4988618;28;20260;-66
2022/09/19 02:32:17;;;;;;;4.13;2.00;;;;;;;;;;4987771;28;20213;-66
2022/09/19 02:34:47;;;;;;;3.07;2.20;;;;;;;;;;4972549;28;20545;-64
2022/09/19 02:37:35;;;;;;;2.53;1.70;;;;;;;;;;4988593;28;20247;-66
2022/09/19 02:40:04;;;;;;;4.87;1.80;;;;;;;;;;4972066;28;20193;-67
2022/09/19 02:42:48;;;;;;;3.10;1.30;;;;;;;;;;5003422;28;20288;-66
2022/09/19 02:45:19;;;;;;;3.10;1.27;;;;;;;;;;4987812;28;20201;-66
2022/09/19 02:48:03;;;;;;;3.07;1.57;;;;;;;;;;4986602;28;20290;-66
2022/09/19 02:50:41;;;;;;;3.00;1.40;;;;;;;;;;5008269;28;20227;-66
2022/09/19 02:53:09;;;;;;;2.43;1.40;;;;;;;;;;4989786;28;20607;-67
2022/09/19 02:55:40;;;;;;;4.30;1.40;;;;;;;;;;4994994;28;20707;-68
2022/09/19 02:58:07;;;;;;;2.13;1.30;;;;;;;;;;4978763;28;20185;-68
2022/09/19 03:00:34;;;;;;;2.30;1.50;;;;;;;;;;4994444;28;20204;-67
2022/09/19 03:05:59;;;;;;;3.07;1.50;;;;;;;;;;4986457;28;20620;-67
2022/09/19 03:08:26;;;;;;;2.30;1.10;;;;;;;;;;4995099;28;20212;-68
2022/09/19 03:10:58;;;;;;;2.97;1.70;;;;;;;;;;4978605;28;20630;-68
2022/09/19 03:13:33;;;;;;;4.23;1.30;;;;;;;;;;4995833;28;20663;-69
2022/09/19 03:16:02;;;;;;;1.73;1.13;;;;;;;;;;4994718;28;20196;-67
2022/09/19 03:18:35;;;;;;;1.57;1.40;;;;;;;;;;4993737;28;21023;-67
2022/09/19 03:21:02;;;;;;;3.20;1.30;;;;;;;;;;4991280;28;20201;-67
2022/09/19 03:23:31;;;;;;;2.43;1.30;;;;;;;;;;4988530;28;20193;-67
2022/09/19 03:25:58;;;;;;;2.23;1.30;;;;;;;;;;4994430;28;20201;-67
2022/09/19 03:28:25;;;;;;;2.43;1.23;;;;;;;;;;4995774;28;20189;-67
2022/09/19 03:30:59;;;;;;;2.90;1.50;;;;;;;;;;4993361;28;20225;-67
2022/09/19 03:33:26;;;;;;;2.13;1.20;;;;;;;;;;5010123;28;20762;-67
2022/09/19 03:35:56;;;;;;;2.70;1.10;;;;;;;;;;4993692;28;20196;-67
2022/09/19 03:38:23;;;;;;;2.33;1.20;;;;;;;;;;4996132;28;20231;-66
2022/09/19 03:40:50;;;;;;;2.40;1.40;;;;;;;;;;4994538;28;20196;-66
2022/09/19 03:43:20;;;;;;;1.33;1.20;;;;;;;;;;4991209;28;20211;-71
2022/09/19 03:45:46;;;;;;;2.77;1.30;;;;;;;;;;4979582;28;20196;-68
2022/09/19 03:48:13;;;;;;;1.77;1.47;;;;;;;;;;4986051;28;20197;-69
2022/09/19 03:50:41;;;;;;;3.57;1.30;;;;;;;;;;5002254;28;20220;-72
2022/09/19 03:53:13;;;;;;;1.57;1.30;;;;;;;;;;4985900;28;20896;-69
2022/09/19 03:55:42;;;;;;;2.23;1.40;;;;;;;;;;4987579;28;20208;-69
2022/09/19 03:58:16;;;;;;;2.40;1.20;;;;;;;;;;4986956;28;20278;-67
2022/09/19 04:00:42;;;;;;;1.77;1.23;;;;;;;;;;4986933;28;20199;-69
2022/09/19 04:03:12;;;;;;;2.17;1.20;;;;;;;;;;4982804;28;20226;-68
2022/09/19 04:05:39;;;;;;;2.40;1.00;;;;;;;;;;4984712;28;20196;-67
2022/09/19 04:08:07;;;;;;;3.30;1.00;;;;;;;;;;4984154;28;20276;-69
2022/09/19 04:10:35;;;;;;;1.50;0.97;;;;;;;;;;4983073;28;20232;-69
2022/09/19 04:13:01;;;;;;;1.37;0.97;;;;;;;;;;4985995;28;20235;-69
2022/09/19 04:15:30;;;;;;;1.60;1.20;;;;;;;;;;4984157;28;20207;-69
2022/09/19 04:17:58;;;;;;;1.50;0.90;;;;;;;;;;4984090;28;20201;-69
2022/09/19 04:20:29;;;;;;;2.10;1.00;;;;;;;;;;4984607;28;20196;-68
2022/09/19 04:23:16;;;;;;;1.30;0.70;;;;;;;;;;4981440;28;20208;-66
2022/09/19 04:26:05;;;;;;;1.20;0.90;;;;;;;;;;4983727;28;20311;-66
2022/09/19 04:28:35;;;;;;;1.07;0.97;;;;;;;;;;4983817;28;20252;-67
2022/09/19 04:31:01;;;;;;;1.00;0.80;;;;;;;;;;4983524;28;20221;-66
2022/09/19 04:33:31;;;;;;;1.97;0.90;;;;;;;;;;5000990;28;20197;-67
2022/09/19 04:35:59;;;;;;;2.83;1.10;;;;;;;;;;4989681;28;20247;-67
2022/09/19 04:38:30;;;;;;;1.20;0.73;;;;;;;;;;4990235;28;20192;-67
2022/09/19 04:40:58;;;;;;;3.77;0.80;;;;;;;;;;4991381;28;20521;-67
2022/09/19 04:43:26;;;;;;;0.97;0.93;;;;;;;;;;5005526;28;20193;-67
2022/09/19 04:46:04;;;;;;;0.73;0.67;;;;;;;;;;4988060;28;20302;-67
2022/09/19 04:48:43;;;;;;;1.73;1.00;;;;;;;;;;4987172;28;20204;-67
2022/09/19 04:51:11;;;;;;;1.00;0.90;;;;;;;;;;4984283;28;20347;-67
2022/09/19 04:53:55;;;;;;;3.37;1.37;;;;;;;;;;4987334;28;20219;-67
2022/09/19 04:56:22;;;;;;;4.80;1.67;;;;;;;;;;4986144;28;20986;-67
2022/09/19 04:59:06;;;;;;;3.60;2.60;;;;;;;;;;4988338;28;20591;-67
2022/09/19 05:01:36;;;;;;;4.03;2.60;;;;;;;;;;4990183;28;20197;-66
2022/09/19 05:04:06;;;;;;;2.73;2.00;;;;;;;;;;4980448;28;20211;-69
2022/09/19 05:06:33;;;;;;;3.33;2.00;;;;;;;;;;4982079;28;20753;-71
2022/09/19 05:09:02;;;;;;;1.50;1.17;;;;;;;;;;4982447;28;20193;-68
2022/09/19 05:11:33;;;;;;;0.87;0.80;;;;;;;;;;4983122;28;20240;-69
2022/09/19 05:14:01;;;;;;;0.83;0.70;;;;;;;;;;4979486;28;20563;-68
2022/09/19 05:16:30;;;;;;;1.80;0.70;;;;;;;;;;4983135;28;20719;-69
2022/09/19 05:19:06;;;;;;;1.00;0.80;;;;;;;;;;4973042;28;20217;-69
2022/09/19 05:21:33;;;;;;;3.80;0.93;;;;;;;;;;4961499;28;20201;-72
2022/09/19 05:24:01;;;;;;;1.17;0.80;;;;;;;;;;4984863;28;20671;-69
2022/09/19 05:26:28;;;;;;;1.27;0.83;;;;;;;;;;4967593;28;20198;-68
2022/09/19 05:28:59;;;;;;;1.87;1.00;;;;;;;;;;4984795;28;20197;-68
2022/09/19 05:31:35;;;;;;;1.13;0.70;;;;;;;;;;4949900;28;20924;-69
2022/09/19 05:34:17;;;;;;;1.87;1.20;;;;;;;;;;4985129;28;20196;-69
2022/09/19 05:36:47;;;;;;;1.10;0.80;;;;;;;;;;4964102;28;20194;-69
2022/09/19 05:39:46;;;;;;;1.43;0.70;;;;;;;;;;4967325;28;20197;-67
2022/09/19 05:42:42;;;;;;;1.10;0.63;;;;;;;;;;4969724;28;20208;-67
2022/09/19 05:45:10;;;;;;;1.00;0.63;;;;;;;;;;4969811;28;20881;-67
2022/09/19 05:47:39;;;;;;;2.13;0.70;;;;;;;;;;4970000;28;20268;-67
2022/09/19 05:50:08;;;;;;;0.97;0.60;;;;;;;;;;4969241;28;20201;-67
2022/09/19 05:55:25;;;;;;;1.80;1.00;;;;;;;;;;4955143;28;20264;-68
2022/09/19 05:58:06;;;;;;;1.10;0.70;;;;;;;;;;4958600;28;20201;-69
2022/09/19 06:00:33;;;;;;;1.13;0.90;;;;;;;;;;4977174;28;20197;-67
2022/09/19 06:03:03;;;;;;;2.20;0.90;;;;;;;;;;4960642;28;20217;-66
2022/09/19 06:05:36;;;;;;;3.17;0.90;;;;;;;;;;4962060;28;20206;-66
2022/09/19 06:08:04;;;;;;;2.07;0.87;;;;;;;;;;4966592;28;20209;-67
2022/09/19 06:10:32;;;;;;;1.90;0.97;;;;;;;;;;4951817;28;20229;-67
2022/09/19 06:12:59;;;;;;;1.20;0.90;;;;;;;;;;4964070;28;20284;-67
2022/09/19 06:15:26;;;;;;;2.37;1.00;;;;;;;;;;4961415;28;20272;-68
2022/09/19 06:17:53;;;;;;;3.00;0.90;;;;;;;;;;4962716;28;20681;-68
2022/09/19 06:20:41;;;;;;;1.50;1.00;;;;;;;;;;4976366;28;20337;-66
2022/09/19 06:23:37;;;;;;;1.80;1.20;;;;;;;;;;4961549;28;20174;-69
2022/09/19 06:26:03;;;;;;;2.17;1.07;;;;;;;;;;4961971;28;20263;-67
2022/09/19 06:28:32;;;;;;;8.30;1.90;;;;;;;;;;4962037;28;20644;-69
2022/09/19 06:31:07;;;;;;;1.70;1.50;;;;;;;;;;4961986;28;20914;-69
2022/09/19 06:33:44;;;;;;;5.10;2.13;;;;;;;;;;4962441;28;20698;-70
2022/09/19 06:36:16;;;;;;;2.37;1.37;;;;;;;;;;4947401;28;20197;-68
2022/09/19 06:38:43;;;;;;;3.03;1.30;;;;;;;;;;4978822;28;20288;-69
2022/09/19 06:41:36;;;;;;;2.20;1.40;;;;;;;;;;4947046;28;20237;-68
2022/09/19 06:44:21;;;;;;;2.90;1.30;;;;;;;;;;4960122;28;20204;-69
2022/09/19 06:47:04;;;;;;;2.50;1.40;;;;;;;;;;4962830;28;20323;-69
2022/09/19 06:49:45;;;;;;;2.03;1.30;;;;;;;;;;4961544;28;20552;-69
2022/09/19 06:52:30;;;;;;;2.37;1.47;;;;;;;;;;4961476;28;20221;-68
2022/09/19 06:55:00;;;;;;;2.23;1.17;;;;;;;;;;4977502;28;20275;-69
2022/09/19 06:57:27;;;;;;;2.30;1.20;;;;;;;;;;4962158;28;20205;-69
2022/09/19 06:59:54;;;;;;;3.03;1.30;;;;;;;;;;4961966;28;20205;-69
2022/09/19 07:02:21;;;;;;;2.00;1.27;;;;;;;;;;4962661;28;20209;-69
2022/09/19 07:04:49;;;;;;;1.70;0.93;;;;;;;;;;4961349;28;20213;-67
2022/09/19 07:07:35;;;;;;;2.63;1.10;;;;;;;;;;4961505;28;20310;-68
2022/09/19 07:10:04;;;;;;;1.50;0.80;;;;;;;;;;4961230;28;20213;-68
2022/09/19 07:12:31;;;;;;;3.77;1.13;;;;;;;;;;4961018;28;20232;-69
2022/09/19 07:15:03;;;;;;;2.83;1.07;;;;;;;;;;4961459;28;20212;-69
2022/09/19 07:17:31;;;;;;;2.20;1.10;;;;;;;;;;4960624;28;20756;-72
2022/09/19 07:19:59;;;;;;;2.77;1.13;;;;;;;;;;4961190;28;20225;-68
2022/09/19 07:22:58;;;;;;;2.27;1.00;;;;;;;;;;4961389;28;20186;-67
2022/09/19 07:25:49;;;;;;;2.57;1.20;;;;;;;;;;4961167;28;20201;-69
2022/09/19 07:28:19;;;;;;;2.23;1.00;;;;;;;;;;4961003;28;20190;-68
2022/09/19 07:30:48;;;;;;;2.53;0.90;;;;;;;;;;4960434;28;20202;-68
2022/09/19 07:33:21;;;;;;;3.17;1.00;;;;;;;;;;4961268;28;20200;-70
2022/09/19 07:35:48;;;;;;;1.80;0.70;;;;;;;;;;4961395;28;20190;-68
2022/09/19 07:38:16;;;;;;;3.17;1.00;;;;;;;;;;4964109;28;20209;-69
2022/09/19 07:41:12;;;;;;;1.40;0.67;;;;;;;;;;4968646;28;20610;-71
2022/09/19 07:44:02;;;;;;;1.40;0.60;;;;;;;;;;4955706;28;20209;-69
2022/09/19 07:47:26;;;;;;;1.90;0.70;;;;;;;;;;4965792;28;20205;-70
2022/09/19 07:49:50;;;;;;;1.10;0.50;;;;;;;;;;4979951;28;20194;-69
2022/09/19 07:52:34;;;;;;;2.53;0.80;;;;;;;;;;4965281;28;20227;-70
2022/09/19 07:55:01;;;;;;;3.23;0.87;;;;;;;;;;4966245;28;20351;-69
2022/09/19 07:57:30;;;;;;;2.77;0.60;;;;;;;;;;4964756;28;20201;-69
2022/09/19 07:59:57;;;;;;;1.50;0.70;;;;;;;;;;4963351;28;20209;-68
2022/09/19 08:02:24;;;;;;;1.00;0.60;;;;;;;;;;4965025;28;20189;-68
2022/09/19 08:04:53;;;;;;;2.90;0.80;;;;;;;;;;4964523;28;20211;-68
2022/09/19 08:07:23;;;;;;;1.17;0.60;;;;;;;;;;4964693;28;20553;-69
2022/09/19 08:09:52;;;;;;;2.67;0.70;;;;;;;;;;4969680;28;20669;-68
2022/09/19 08:12:23;;;;;;;3.00;1.00;;;;;;;;;;4963607;28;20320;-68
2022/09/19 08:15:03;;;;;;;1.53;0.80;;;;;;;;;;4979972;28;20676;-69
2022/09/19 08:17:30;;;;;;;3.10;0.80;;;;;;;;;;4980884;28;20190;-68
2022/09/19 08:19:58;;;;;;;1.17;0.67;;;;;;;;;;4977550;28;20221;-70
2022/09/19 08:22:25;;;;;;;3.17;0.80;;;;;;;;;;4967932;28;20198;-69
2022/09/19 08:25:01;;;;;;;0.77;0.60;;;;;;;;;;4953715;28;20197;-69
2022/09/19 08:27:28;;;;;;;1.73;0.93;;;;;;;;;;4952552;28;20194;-70
2022/09/19 08:29:58;;;;;;;1.60;0.80;;;;;;;;;;4967846;28;20897;-70
2022/09/19 08:32:26;;;;;;;1.70;0.70;;;;;;;;;;4969908;28;20227;-69
2022/09/19 08:34:55;;;;;;;1.50;0.80;;;;;;;;;;4968232;28;20288;-70
2022/09/19 08:37:22;;;;;;;1.13;0.87;;;;;;;;;;4965186;28;20201;-69
2022/09/19 08:42:48;;;;;;;1.20;0.60;;;;;;;;;;4980004;28;20293;-69
2022/09/19 08:45:36;;;;;;;3.23;1.13;;;;;;;;;;4964720;28;20331;-68
2022/09/19 08:48:04;;;;;;;2.33;0.80;;;;;;;;;;4964624;28;20250;-68
2022/09/19 08:50:32;;;;;;;2.43;0.73;;;;;;;;;;4964960;28;20221;-67
2022/09/19 08:53:04;;;;;;;3.07;0.70;;;;;;;;;;4981712;28;20261;-67
2022/09/19 08:55:49;;;;;;;1.40;0.83;;;;;;;;;;4966170;28;20184;-66
2022/09/19 08:58:18;;;;;;;2.20;0.90;;;;;;;;;;4951617;28;20204;-68
2022/09/19 09:01:17;;;;;;;0.90;0.60;;;;;;;;;;4941235;28;20205;-68
2022/09/19 09:04:31;;;;;;;1.27;0.60;;;;;;;;;;4971567;28;20201;-69
2022/09/19 09:07:20;;;;;;;1.90;0.77;;;;;;;;;;4970116;28;20194;-69
2022/09/19 09:10:02;;;;;;;1.13;0.60;;;;;;;;;;4953085;28;20257;-69
2022/09/19 09:12:35;;;;;;;1.03;0.50;;;;;;;;;;4948701;28;20241;-68
2022/09/19 09:15:05;;;;;;;0.80;0.40;;;;;;;;;;4966338;28;20197;-69
2022/09/19 09:17:57;;;;;;;1.87;0.60;;;;;;;;;;4953686;28;20212;-68
2022/09/19 09:20:26;;;;;;;0.80;0.43;;;;;;;;;;4967961;28;20211;-70
2022/09/19 09:23:04;;;;;;;1.80;0.60;;;;;;;;;;4970310;28;20205;-69
2022/09/19 09:25:49;;;;;;;2.20;0.90;;;;;;;;;;4952359;28;20677;-67
2022/09/19 09:28:35;;;;;;;3.03;0.87;;;;;;;;;;4969817;28;20201;-67
2022/09/19 09:32:03;;;;;;;1.03;0.73;;;;;;;;;;4949108;29;20214;-69
2022/09/19 09:34:35;;;;;;;0.90;0.70;;;;;;;;;;4944081;28;20198;-68
2022/09/19 09:37:09;;;;;;;2.57;0.80;;;;;;;;;;4985575;28;20289;-68
2022/09/19 09:39:49;;;;;;;1.00;0.60;;;;;;;;;;4968913;28;20197;-68
2022/09/19 09:42:17;;;;;;;2.30;0.60;;;;;;;;;;4979377;28;20198;-68
2022/09/19 09:44:59;;;;;;;3.83;0.73;;;;;;;;;;4954227;28;20198;-68
2022/09/19 09:47:39;;;;;;;0.87;0.60;;;;;;;;;;4950879;28;20190;-68
2022/09/19 09:50:13;;;;;;;1.53;0.60;;;;;;;;;;4983065;28;20240;-68
2022/09/19 09:52:55;;;;;;;1.23;0.50;;;;;;;;;;4969779;28;20241;-68
2022/09/19 09:58:21;;;;;;;0.97;0.47;;;;;;;;;;4966670;28;22341;-68
2022/09/19 10:03:49;;;;;;;3.80;0.63;;;;;;;;;;4969797;28;20304;-68
2022/09/19 10:06:43;;;;;;;0.87;0.40;;;;;;;;;;4969114;28;20669;-67
2022/09/19 10:09:12;;;;;;;0.60;0.43;;;;;;;;;;4975008;28;20272;-67
2022/09/19 10:12:05;;;;;;;1.87;0.67;;;;;;;;;;4968151;28;20228;-68
2022/09/19 10:14:55;;;;;;;1.17;0.50;;;;;;;;;;4950915;28;20197;-68
2022/09/19 10:18:07;;;;;;;1.17;0.70;;;;;;;;;;4898594;29;20250;-68
2022/09/19 10:20:48;;;;;;;2.17;0.40;;;;;;;;;;4909598;29;20206;-68
2022/09/19 10:23:32;;;;;;;2.37;0.50;;;;;;;;;;4938972;28;20891;-68
2022/09/19 10:26:15;;;;;;;0.70;0.50;;;;;;;;;;4968931;28;20190;-68
2022/09/19 10:28:51;;;;;;;0.63;0.50;;;;;;;;;;4961212;28;20205;-67
2022/09/19 10:31:40;;;;;;;0.73;0.40;;;;;;;;;;4958681;28;20194;-67
2022/09/19 10:34:40;;;;;;;1.17;0.50;;;;;;;;;;4977201;28;20389;-67
2022/09/19 10:37:18;;;;;;;1.87;0.70;;;;;;;;;;4961096;28;20213;-67
2022/09/19 10:39:46;;;;;;;1.73;0.40;;;;;;;;;;4961338;28;20201;-67
2022/09/19 10:42:36;;;;;;;0.70;0.40;;;;;;;;;;4976968;28;20986;-66
2022/09/19 10:45:25;;;;;;;1.17;0.43;;;;;;;;;;4961193;28;20200;-67
2022/09/19 10:47:56;;;;;;;0.60;0.43;;;;;;;;;;4975430;28;20325;-67
2022/09/19 10:50:23;;;;;;;0.83;0.40;;;;;;;;;;4961848;28;20205;-67
2022/09/19 10:53:00;;;;;;;1.23;0.47;;;;;;;;;;4958834;28;20652;-68
2022/09/19 10:55:27;;;;;;;1.17;0.60;;;;;;;;;;4960443;28;20205;-68
2022/09/19 10:58:03;;;;;;;0.93;0.40;;;;;;;;;;4961458;28;20341;-69
2022/09/19 11:00:44;;;;;;;1.20;0.40;;;;;;;;;;4960782;28;20219;-69
2022/09/19 11:03:23;;;;;;;1.33;0.50;;;;;;;;;;4960507;28;21034;-71
2022/09/19 11:06:13;;;;;;;1.97;0.70;;;;;;;;;;4960536;28;20209;-70
2022/09/19 11:08:51;;;;;;;1.73;0.70;;;;;;;;;;4960346;28;20202;-70
2022/09/19 11:11:37;;;;;;;2.20;0.70;;;;;;;;;;4962058;28;20229;-72
2022/09/19 11:14:31;;;;;;;0.83;0.50;;;;;;;;;;4965228;28;20209;-71
2022/09/19 11:17:08;;;;;;;1.93;0.80;;;;;;;;;;4964548;28;20289;-68
2022/09/19 11:19:58;;;;;;;1.23;0.90;;;;;;;;;;4965929;28;20208;-70
2022/09/19 11:22:53;;;;;;;1.93;1.10;;;;;;;;;;4950383;28;20664;-69
2022/09/19 11:25:27;;;;;;;2.53;0.97;;;;;;;;;;4964798;28;20736;-70
2022/09/19 11:28:15;;;;;;;1.30;0.70;;;;;;;;;;4964816;28;20292;-71
2022/09/19 11:30:49;;;;;;;1.00;0.70;;;;;;;;;;4975007;28;20197;-70
2022/09/19 11:33:21;;;;;;;3.43;0.97;;;;;;;;;;4963695;28;20918;-69
2022/09/19 11:36:35;;;;;;;1.47;0.80;;;;;;;;;;4942024;28;20241;-69
2022/09/19 11:39:06;;;;;;;2.67;1.30;;;;;;;;;;4963403;28;20220;-72
2022/09/19 11:41:54;;;;;;;2.27;1.23;;;;;;;;;;4965325;28;20197;-71
2022/09/19 11:44:34;;;;;;;1.90;1.13;;;;;;;;;;4980385;28;20308;-69
2022/09/19 11:47:25;;;;;;;1.33;0.80;;;;;;;;;;4963390;28;20201;-70
2022/09/19 11:49:56;;;;;;;1.23;0.87;;;;;;;;;;4963233;28;20669;-67
2022/09/19 11:52:28;;;;;;;1.10;0.80;;;;;;;;;;4980297;28;20572;-68
2022/09/19 11:55:05;;;;;;;1.73;0.90;;;;;;;;;;4963824;28;20202;-68
2022/09/19 11:57:39;;;;;;;3.27;1.10;;;;;;;;;;4962786;28;20208;-68
2022/09/19 12:00:12;;;;;;;2.20;0.60;;;;;;;;;;4964513;28;20194;-69
2022/09/19 12:02:58;;;;;;;1.50;0.53;;;;;;;;;;4963904;28;20259;-72
2022/09/19 12:05:42;;;;;;;1.20;0.57;;;;;;;;;;4963649;28;20208;-70
2022/09/19 12:08:18;;;;;;;0.60;0.40;;;;;;;;;;4963662;28;20205;-68
2022/09/19 12:10:50;;;;;;;0.77;0.50;;;;;;;;;;4964025;28;20201;-68
2022/09/19 12:13:22;;;;;;;0.60;0.50;;;;;;;;;;4964177;28;20256;-72
2022/09/19 12:15:59;;;;;;;0.63;0.50;;;;;;;;;;4964384;28;20696;-71
2022/09/19 12:18:50;;;;;;;1.17;0.70;;;;;;;;;;4960669;28;20205;-68
2022/09/19 12:21:19;;;;;;;2.50;0.60;;;;;;;;;;4976797;28;21054;-69
2022/09/19 12:26:53;;;;;;;1.43;0.60;;;;;;;;;;4961861;28;20220;-69
2022/09/19 12:29:24;;;;;;;1.20;0.67;;;;;;;;;;4963366;28;20201;-72
2022/09/19 12:31:58;;;;;;;0.73;0.63;;;;;;;;;;4970522;28;20216;-69
2022/09/19 12:34:32;;;;;;;0.40;0.40;;;;;;;;;;4962859;28;20204;-69
2022/09/19 12:37:00;;;;;;;3.73;0.70;;;;;;;;;;4961960;28;20534;-69
2022/09/19 12:40:03;;;;;;;1.00;0.50;;;;;;;;;;4977833;28;20232;-70
2022/09/19 12:42:44;;;;;;;0.80;0.50;;;;;;;;;;4888811;29;20203;-69
2022/09/19 12:45:15;;;;;;;0.90;0.50;;;;;;;;;;4942956;28;20340;-72
2022/09/19 12:47:49;;;;;;;1.10;0.43;;;;;;;;;;4961841;28;20288;-73
2022/09/19 12:50:31;;;;;;;2.43;0.50;;;;;;;;;;4962642;28;20970;-72
2022/09/19 12:52:58;;;;;;;0.93;0.43;;;;;;;;;;4963124;28;20213;-74
2022/09/19 12:55:35;;;;;;;1.07;0.37;;;;;;;;;;4937485;28;20198;-70
2022/09/19 12:58:05;;;;;;;1.77;0.60;;;;;;;;;;4951411;28;20201;-68
2022/09/19 13:00:34;;;;;;;0.67;0.40;;;;;;;;;;4953219;28;20264;-68
2022/09/19 13:03:08;;;;;;;0.37;0.33;;;;;;;;;;4967862;28;20202;-70
2022/09/19 13:05:37;;;;;;;0.50;0.40;;;;;;;;;;4966272;28;20199;-67
2022/09/19 13:08:12;;;;;;;0.53;0.50;;;;;;;;;;4955449;28;20206;-71
2022/09/19 13:10:39;;;;;;;1.77;0.70;;;;;;;;;;4966547;28;20193;-71
2022/09/19 13:13:11;;;;;;;1.10;0.67;;;;;;;;;;4951014;28;20241;-69
2022/09/19 13:15:50;;;;;;;1.57;0.50;;;;;;;;;;4964289;28;20661;-70
2022/09/19 13:24:11;;;;;;;1.10;0.50;;;;;;;;;;4954788;28;20166;-69
2022/09/19 13:26:38;;;;;;;0.73;0.40;;;;;;;;;;4949328;28;20202;-69
2022/09/19 13:29:09;;;;;;;0.90;0.50;;;;;;;;;;4968115;28;20288;-68
2022/09/19 13:31:48;;;;;;;2.10;0.50;;;;;;;;;;4949598;28;20194;-68
2022/09/19 13:34:45;;;;;;;1.40;0.70;;;;;;;;;;4949207;28;20257;-68
2022/09/19 13:37:27;;;;;;;1.13;0.60;;;;;;;;;;4941219;28;20301;-69
2022/09/19 13:40:06;;;;;;;5.63;0.63;;;;;;;;;;4952130;28;20198;-69
2022/09/19 13:42:40;;;;;;;0.80;0.50;;;;;;;;;;4952011;28;20194;-68
2022/09/19 13:45:13;;;;;;;0.70;0.43;;;;;;;;;;4949347;28;20198;-68
2022/09/19 13:47:40;;;;;;;0.70;0.50;;;;;;;;;;4948160;28;20194;-68
2022/09/19 13:50:17;;;;;;;0.60;0.30;;;;;;;;;;4948652;29;20198;-68
2022/09/19 13:52:46;;;;;;;2.50;1.63;;;;;;;;;;4949802;28;20396;-68
2022/09/19 13:55:13;;;;;;;1.90;0.97;;;;;;;;;;4949605;28;20263;-68
2022/09/19 13:57:42;;;;;;;1.90;1.77;;;;;;;;;;4942189;28;20199;-68
2022/09/19 14:00:34;;;;;;;1.23;0.90;;;;;;;;;;4950619;28;20190;-67
2022/09/19 14:03:05;;;;;;;2.37;0.97;;;;;;;;;;4948699;28;20673;-68
2022/09/19 14:05:36;;;;;;;2.57;1.67;;;;;;;;;;4946277;28;20249;-67
2022/09/19 14:08:03;;;;;;;2.43;0.80;;;;;;;;;;4949393;28;20675;-67
2022/09/19 14:10:53;;;;;;;3.63;1.87;;;;;;;;;;4943394;28;20647;-67
2022/09/19 14:13:21;;;;;;;9.77;8.77;;;;;;;;;;4948630;28;20210;-68
2022/09/19 14:15:54;;;;;;;1.30;1.10;;;;;;;;;;4951608;28;20198;-68
2022/09/19 14:18:30;;;;;;;2.47;0.80;;;;;;;;;;4951125;28;20190;-67
2022/09/19 14:21:00;;;;;;;1.63;0.90;;;;;;;;;;4950289;28;20201;-67
2022/09/19 14:23:31;;;;;;;1.00;0.90;;;;;;;;;;4950574;28;20676;-68
2022/09/19 14:26:01;;;;;;;2.63;1.13;;;;;;;;;;4947029;28;20205;-67
2022/09/19 14:28:30;;;;;;;1.33;0.90;;;;;;;;;;4950741;28;20281;-70
2022/09/19 14:31:10;;;;;;;1.67;0.50;;;;;;;;;;4950789;28;20324;-69
2022/09/19 14:33:56;;;;;;;5.53;2.60;;;;;;;;;;4950787;28;20275;-69
2022/09/19 14:36:27;;;;;;;39.00;21.33;;;;;;;;;;4950698;28;20280;-67
2022/09/19 14:38:54;;;;;;;9.37;6.40;;;;;;;;;;4951317;28;20198;-68
2022/09/19 14:41:21;;;;;;;1.50;1.20;;;;;;;;;;4951447;28;20276;-67
2022/09/19 14:44:13;;;;;;;0.80;0.70;;;;;;;;;;4941842;28;20218;-68
2022/09/19 14:46:41;;;;;;;1.53;0.60;;;;;;;;;;4929096;29;20261;-68
2022/09/19 14:49:11;;;;;;;0.80;0.80;;;;;;;;;;4945880;28;20250;-68
2022/09/19 14:51:39;;;;;;;1.23;0.73;;;;;;;;;;4949165;28;20217;-69
2022/09/19 14:54:17;;;;;;;2.47;0.70;;;;;;;;;;4949710;28;20629;-68
2022/09/19 14:56:55;;;;;;;1.20;0.60;;;;;;;;;;4949700;28;20197;-69
2022/09/19 14:59:23;;;;;;;1.80;0.53;;;;;;;;;;4943722;28;20244;-67
2022/09/19 15:01:53;;;;;;;1.07;0.60;;;;;;;;;;4946927;28;20207;-68
2022/09/19 15:04:23;;;;;;;1.67;0.60;;;;;;;;;;4909013;29;20205;-67
2022/09/19 15:06:51;;;;;;;1.83;0.60;;;;;;;;;;4946636;28;20713;-65
2022/09/19 15:09:23;;;;;;;1.27;0.60;;;;;;;;;;4950653;28;20202;-66
2022/09/19 15:11:50;;;;;;;2.67;0.70;;;;;;;;;;4948648;28;20230;-66
2022/09/19 15:14:19;;;;;;;3.30;2.10;;;;;;;;;;4943287;29;20217;-65
2022/09/19 15:16:46;;;;;;;0.83;0.80;;;;;;;;;;4960503;28;20198;-66
2022/09/19 15:19:15;;;;;;;1.53;0.90;;;;;;;;;;4958505;28;20202;-64
2022/09/19 15:21:42;;;;;;;1.87;0.83;;;;;;;;;;4949220;28;20650;-64
2022/09/19 15:24:09;;;;;;;3.43;1.57;;;;;;;;;;4949179;29;20202;-65
2022/09/19 15:26:45;;;;;;;8.43;2.80;;;;;;;;;;4948710;28;20198;-64
2022/09/19 15:29:41;;;;;;;6.20;2.80;;;;;;;;;;4950598;28;20191;-64
2022/09/19 15:32:31;;;;;;;5.77;2.40;;;;;;;;;;4950468;29;20304;-64
2022/09/19 15:34:58;;;;;;;2.30;1.20;;;;;;;;;;4947645;28;20229;-64
2022/09/19 15:37:26;;;;;;;1.27;0.93;;;;;;;;;;4949282;28;20197;-64
2022/09/19 15:39:52;;;;;;;0.97;0.87;;;;;;;;;;4950551;28;20205;-64
2022/09/19 15:42:19;;;;;;;1.53;1.00;;;;;;;;;;4948901;28;20205;-64
2022/09/19 15:44:47;;;;;;;1.63;1.30;;;;;;;;;;4947256;28;20221;-64
2022/09/19 15:47:15;;;;;;;1.03;0.70;;;;;;;;;;4947529;29;20202;-64
2022/09/19 15:49:44;;;;;;;1.07;0.87;;;;;;;;;;4949635;28;20194;-65
2022/09/19 15:52:30;;;;;;;2.13;0.83;;;;;;;;;;4943850;28;20225;-65
2022/09/19 15:54:58;;;;;;;1.10;0.80;;;;;;;;;;4949908;28;20222;-66
2022/09/19 15:57:31;;;;;;;0.80;0.57;;;;;;;;;;4948918;28;20191;-65